createdAt,value
2022-08-28T00:04:28.372Z,22.00
2022-08-28T00:09:30.834Z,22.10
2022-08-28T00:14:33.852Z,22.10
2022-08-28T00:19:38.720Z,22.10
2022-08-28T00:24:42.948Z,22.10
2022-08-28T00:29:45.382Z,22.10
2022-08-28T00:34:47.919Z,21.90
2022-08-28T00:39:50.538Z,22.00
2022-08-28T00:44:53.010Z,22.00
2022-08-28T00:49:56.840Z,21.90
2022-08-28T00:55:02.802Z,21.90
2022-08-28T01:00:08.778Z,21.80
2022-08-28T01:05:11.478Z,21.70
2022-08-28T01:10:18.464Z,21.70
2022-08-28T01:15:25.464Z,21.70
2022-08-28T01:20:31.134Z,21.60
2022-08-28T01:25:35.715Z,21.60
2022-08-28T01:30:42.981Z,21.50
2022-08-28T01:35:47.823Z,21.40
2022-08-28T01:40:53.646Z,21.40
2022-08-28T01:46:02.261Z,21.40
2022-08-28T01:51:06.249Z,21.30
2022-08-28T01:56:12.921Z,21.20
2022-08-28T02:01:20.786Z,21.20
2022-08-28T02:06:23.339Z,21.10
2022-08-28T02:11:26.874Z,21.00
2022-08-28T02:16:29.777Z,21.00
2022-08-28T02:21:32.255Z,20.90
2022-08-28T02:26:35.085Z,20.90
2022-08-28T02:31:38.102Z,20.80
2022-08-28T02:36:42.067Z,20.70
2022-08-28T02:41:44.849Z,20.80
2022-08-28T02:46:47.337Z,20.80
2022-08-28T02:51:50.685Z,20.80
2022-08-28T02:56:54.544Z,20.80
2022-08-28T03:01:57.034Z,20.80
2022-08-28T03:06:59.670Z,20.70
2022-08-28T03:12:02.418Z,20.70
2022-08-28T03:17:07.377Z,20.50
2022-08-28T03:22:09.842Z,20.30
2022-08-28T03:27:12.379Z,20.30
2022-08-28T03:32:14.792Z,20.30
2022-08-28T03:37:17.263Z,20.20
2022-08-28T03:42:19.918Z,20.20
2022-08-28T03:47:22.617Z,20.30
2022-08-28T03:52:25.749Z,20.20
2022-08-28T03:57:28.211Z,20.00
2022-08-28T04:02:30.692Z,20.00
2022-08-28T04:07:33.087Z,20.10
2022-08-28T04:12:37.095Z,20.10
2022-08-28T04:17:41.110Z,20.10
2022-08-28T04:22:43.600Z,20.20
2022-08-28T04:27:48.977Z,20.20
2022-08-28T04:32:51.439Z,20.40
2022-08-28T04:37:56.469Z,20.30
2022-08-28T04:43:01.585Z,20.30
2022-08-28T04:48:05.515Z,20.30
2022-08-28T04:53:14.549Z,20.20
2022-08-28T04:58:18.347Z,20.30
2022-08-28T05:03:24.895Z,20.40
2022-08-28T05:08:28.352Z,20.40
2022-08-28T05:13:31.155Z,20.50
2022-08-28T05:18:33.731Z,20.60
2022-08-28T05:23:36.193Z,20.50
2022-08-28T05:28:39.380Z,20.60
2022-08-28T05:33:42.759Z,20.70
2022-08-28T05:38:45.610Z,20.70
2022-08-28T05:43:49.206Z,20.70
2022-08-28T05:48:51.614Z,20.60
2022-08-28T05:53:55.002Z,20.70
2022-08-28T05:58:59.699Z,21.00
2022-08-28T06:04:05.702Z,21.30
2022-08-28T06:09:14.459Z,21.40
2022-08-28T06:14:19.646Z,21.40
2022-08-28T06:19:24.782Z,21.60
2022-08-28T06:24:28.596Z,21.40
2022-08-28T06:29:31.249Z,21.60
2022-08-28T06:34:34.254Z,21.70
2022-08-28T06:39:36.785Z,21.90
2022-08-28T06:44:39.633Z,22.10
2022-08-28T06:49:42.080Z,22.20
2022-08-28T06:54:45.611Z,21.70
2022-08-28T06:59:59.111Z,21.70
2022-08-28T07:05:01.641Z,21.70
2022-08-28T07:10:04.367Z,21.90
2022-08-28T07:15:07.809Z,22.00
2022-08-28T07:20:11.500Z,22.20
2022-08-28T07:25:13.899Z,22.40
2022-08-28T07:30:16.434Z,22.70
2022-08-28T07:35:19.192Z,22.90
2022-08-28T07:40:22.347Z,23.30
2022-08-28T07:45:26.526Z,23.30
2022-08-28T07:50:28.906Z,23.40
2022-08-28T07:55:31.811Z,23.40
2022-08-28T08:00:34.268Z,23.30
2022-08-28T08:05:37.390Z,23.40
2022-08-28T08:10:39.804Z,23.40
2022-08-28T08:15:44.350Z,23.20
2022-08-28T08:20:46.809Z,23.20
2022-08-28T08:26:00.623Z,23.10
2022-08-28T08:31:07.948Z,23.00
2022-08-28T08:36:12.195Z,23.00
2022-08-28T08:41:29.000Z,23.20
2022-08-28T08:46:33.954Z,23.10
2022-08-28T08:51:42.259Z,23.20
2022-08-28T08:56:47.032Z,23.50
2022-08-28T09:01:55.771Z,23.50
2022-08-28T09:07:16.424Z,23.80
2022-08-28T09:12:20.718Z,24.00
2022-08-28T09:17:27.894Z,24.10
2022-08-28T09:22:30.420Z,24.10
2022-08-28T09:27:34.928Z,24.30
2022-08-28T09:32:45.125Z,24.60
2022-08-28T09:37:47.601Z,24.70
2022-08-28T09:43:22.495Z,24.80
2022-08-28T09:48:38.136Z,25.10
2022-08-28T09:53:59.705Z,25.20
2022-08-28T09:59:17.234Z,24.90
2022-08-28T10:04:31.639Z,24.90
2022-08-28T10:09:46.832Z,24.70
2022-08-28T10:15:26.274Z,24.90
2022-08-28T10:20:44.566Z,25.10
2022-08-28T10:25:55.276Z,25.20
2022-08-28T10:31:00.555Z,25.20
2022-08-28T10:36:27.394Z,25.30
2022-08-28T10:41:49.801Z,25.40
2022-08-28T10:46:57.762Z,25.40
2022-08-28T10:52:11.834Z,25.30
2022-08-28T10:57:19.956Z,25.20
2022-08-28T11:02:25.990Z,25.20
2022-08-28T11:07:34.940Z,25.30
2022-08-28T11:12:43.294Z,25.50
2022-08-28T11:17:45.757Z,25.50
2022-08-28T11:22:55.271Z,25.60
2022-08-28T11:28:27.119Z,25.60
2022-08-28T11:33:50.585Z,25.40
2022-08-28T11:38:55.992Z,25.00
2022-08-28T11:44:04.378Z,25.00
2022-08-28T11:49:26.198Z,25.20
2022-08-28T11:54:49.859Z,25.30
2022-08-28T11:59:52.166Z,25.30
2022-08-28T12:04:54.538Z,25.10
2022-08-28T12:09:58.280Z,25.00
2022-08-28T12:15:08.092Z,25.00
2022-08-28T12:20:24.076Z,25.00
2022-08-28T12:25:40.551Z,24.90
2022-08-28T12:30:53.865Z,24.90
2022-08-28T12:36:04.527Z,24.70
2022-08-28T12:41:16.950Z,24.40
2022-08-28T12:46:28.871Z,24.20
2022-08-28T12:51:34.070Z,24.20
2022-08-28T12:56:38.531Z,23.70
2022-08-28T13:01:41.612Z,23.70
2022-08-28T13:06:44.241Z,23.90
2022-08-28T13:11:51.645Z,24.00
2022-08-28T13:16:54.118Z,24.40
2022-08-28T13:22:00.705Z,24.80
2022-08-28T13:27:09.076Z,25.20
2022-08-28T13:32:17.671Z,25.20
2022-08-28T13:37:44.803Z,25.20
2022-08-28T13:42:48.195Z,25.30
2022-08-28T13:47:50.600Z,25.20
2022-08-28T13:52:53.643Z,25.30
2022-08-28T13:57:56.220Z,25.40
2022-08-28T14:03:17.067Z,25.60
2022-08-28T14:08:19.400Z,25.60
2022-08-28T14:13:23.344Z,25.70
2022-08-28T14:18:26.436Z,25.80
2022-08-28T14:23:28.942Z,25.40
2022-08-28T14:28:31.305Z,25.20
2022-08-28T14:33:34.312Z,24.90
2022-08-28T14:38:39.427Z,24.70
2022-08-28T14:43:42.535Z,24.60
2022-08-28T14:48:45.376Z,24.40
2022-08-28T14:53:47.736Z,24.70
2022-08-28T14:58:50.322Z,25.00
2022-08-28T15:03:52.795Z,25.00
2022-08-28T15:08:55.567Z,25.00
2022-08-28T15:13:58.597Z,25.00
2022-08-28T15:19:02.495Z,24.90
2022-08-28T15:24:07.134Z,25.00
2022-08-28T15:29:11.892Z,25.00
2022-08-28T15:34:17.411Z,25.20
2022-08-28T15:39:38.995Z,25.20
2022-08-28T15:44:42.018Z,25.00
2022-08-28T15:49:49.952Z,24.60
2022-08-28T15:54:54.443Z,24.50
2022-08-28T15:59:56.861Z,24.40
2022-08-28T16:04:59.305Z,24.20
2022-08-28T16:10:06.999Z,24.00
2022-08-28T16:15:09.979Z,23.90
2022-08-28T16:20:13.220Z,23.70
2022-08-28T16:25:15.601Z,23.60
2022-08-28T16:30:18.576Z,23.70
2022-08-28T16:35:21.341Z,23.60
2022-08-28T16:40:24.271Z,23.40
2022-08-28T16:45:26.675Z,23.40
2022-08-28T16:50:32.351Z,23.30
2022-08-28T16:55:35.113Z,23.30
2022-08-28T17:00:52.273Z,23.20
2022-08-28T17:05:56.956Z,23.20
2022-08-28T17:10:59.464Z,23.20
2022-08-28T17:16:02.638Z,23.10
2022-08-28T17:21:23.994Z,23.10
2022-08-28T17:26:26.475Z,22.90
2022-08-28T17:31:28.970Z,22.90
2022-08-28T17:36:33.161Z,22.80
2022-08-28T17:41:37.179Z,22.50
2022-08-28T17:46:39.833Z,22.40
2022-08-28T17:51:44.335Z,22.30
2022-08-28T17:56:47.365Z,22.20
2022-08-28T18:01:50.400Z,22.10
2022-08-28T18:06:54.591Z,21.90
2022-08-28T18:11:57.347Z,21.80
2022-08-28T18:16:59.718Z,21.80
2022-08-28T18:22:02.169Z,21.70
2022-08-28T18:27:06.585Z,21.60
2022-08-28T18:32:09.040Z,21.60
2022-08-28T18:37:12.251Z,21.40
2022-08-28T18:42:14.793Z,21.40
2022-08-28T18:47:20.277Z,21.50
2022-08-28T18:52:22.663Z,21.50
2022-08-28T18:57:25.507Z,21.40
2022-08-28T19:02:28.248Z,21.40
2022-08-28T19:07:30.670Z,21.20
2022-08-28T19:12:33.601Z,21.00
2022-08-28T19:17:38.146Z,21.00
2022-08-28T19:22:40.983Z,20.80
2022-08-28T19:27:44.259Z,20.80
2022-08-28T19:32:48.409Z,20.70
2022-08-28T19:37:50.865Z,20.70
2022-08-28T19:42:53.476Z,20.70
2022-08-28T19:47:55.858Z,20.70
2022-08-28T19:52:58.188Z,20.70
2022-08-28T19:58:04.065Z,20.70
2022-08-28T20:03:06.595Z,20.80
2022-08-28T20:08:09.401Z,20.60
2022-08-28T20:13:12.390Z,20.70
2022-08-28T20:18:15.685Z,20.70
2022-08-28T20:23:18.700Z,20.70
2022-08-28T20:28:21.254Z,20.60
2022-08-28T20:33:23.781Z,20.60
2022-08-28T20:38:26.659Z,20.60
2022-08-28T20:43:29.052Z,20.50
2022-08-28T20:48:33.374Z,20.40
2022-08-28T20:53:38.647Z,20.40
2022-08-28T20:58:41.007Z,20.40
2022-08-28T21:03:43.320Z,20.40
2022-08-28T21:08:48.056Z,20.40
2022-08-28T21:13:50.655Z,20.40
2022-08-28T21:19:14.756Z,20.50
2022-08-28T21:24:16.827Z,20.30
2022-08-28T21:29:21.251Z,20.40
2022-08-28T21:34:23.662Z,20.30
2022-08-28T21:39:26.033Z,20.30
2022-08-28T21:44:29.075Z,20.30
2022-08-28T21:49:31.466Z,20.40
2022-08-28T21:54:33.888Z,20.30
2022-08-28T21:59:38.007Z,20.20
2022-08-28T22:04:40.582Z,20.20
2022-08-28T22:09:43.213Z,20.20
2022-08-28T22:14:46.096Z,20.10
2022-08-28T22:19:48.479Z,20.10
2022-08-28T22:24:50.873Z,20.00
2022-08-28T22:29:53.196Z,20.00
2022-08-28T22:34:55.831Z,19.90
2022-08-28T22:39:59.234Z,19.80
2022-08-28T22:45:01.973Z,19.70
2022-08-28T22:50:05.308Z,19.70
2022-08-28T22:55:12.617Z,19.70
2022-08-28T23:00:20.416Z,19.60
2022-08-28T23:05:24.674Z,19.60
2022-08-28T23:10:48.171Z,19.50
2022-08-28T23:15:50.153Z,19.40
2022-08-28T23:20:52.579Z,19.30
2022-08-28T23:25:54.930Z,19.10
2022-08-28T23:30:57.304Z,19.10
2022-08-28T23:35:59.700Z,19.00
2022-08-28T23:41:02.464Z,18.90
2022-08-28T23:46:05.489Z,18.80
2022-08-28T23:51:13.101Z,18.70
2022-08-28T23:56:15.590Z,18.70
